sensor_id;sensor_type;location;lat;lon;timestamp;temperature;humidity
10722;DHT22;5412;59.450;18.124;2023-02-11T00:02:05;3.10;99.90
10722;DHT22;5412;59.450;18.124;2023-02-11T00:04:31;3.00;99.90
10722;DHT22;5412;59.450;18.124;2023-02-11T00:06:56;3.10;99.90
10722;DHT22;5412;59.450;18.124;2023-02-11T00:09:22;3.10;99.90
10722;DHT22;5412;59.450;18.124;2023-02-11T00:11:48;3.20;99.90
10722;DHT22;5412;59.450;18.124;2023-02-11T00:14:14;3.20;99.90
10722;DHT22;5412;59.450;18.124;2023-02-11T00:16:40;3.30;99.90
10722;DHT22;5412;59.450;18.124;2023-02-11T00:19:05;3.30;99.90
10722;DHT22;5412;59.450;18.124;2023-02-11T00:21:31;3.30;99.90
10722;DHT22;5412;59.450;18.124;2023-02-11T00:23:58;3.30;99.90
10722;DHT22;5412;59.450;18.124;2023-02-11T00:26:32;3.30;99.90
10722;DHT22;5412;59.450;18.124;2023-02-11T00:28:59;3.30;99.90
10722;DHT22;5412;59.450;18.124;2023-02-11T00:31:25;3.30;99.90
10722;DHT22;5412;59.450;18.124;2023-02-11T00:33:52;3.30;99.90
10722;DHT22;5412;59.450;18.124;2023-02-11T00:36:20;3.40;99.90
10722;DHT22;5412;59.450;18.124;2023-02-11T00:38:47;3.30;99.90
10722;DHT22;5412;59.450;18.124;2023-02-11T00:41:13;3.40;99.90
10722;DHT22;5412;59.450;18.124;2023-02-11T00:43:40;3.60;99.90
10722;DHT22;5412;59.450;18.124;2023-02-11T00:46:06;3.60;99.90
10722;DHT22;5412;59.450;18.124;2023-02-11T00:48:32;3.70;99.90
10722;DHT22;5412;59.450;18.124;2023-02-11T00:50:58;3.90;99.90
10722;DHT22;5412;59.450;18.124;2023-02-11T00:53:24;3.90;99.90
10722;DHT22;5412;59.450;18.124;2023-02-11T00:55:50;4.00;99.90
10722;DHT22;5412;59.450;18.124;2023-02-11T00:58:16;3.90;99.90
10722;DHT22;5412;59.450;18.124;2023-02-11T01:00:41;4.00;99.90
10722;DHT22;5412;59.450;18.124;2023-02-11T01:03:07;3.90;99.90
10722;DHT22;5412;59.450;18.124;2023-02-11T01:05:33;3.90;99.90
10722;DHT22;5412;59.450;18.124;2023-02-11T01:07:59;4.00;99.90
10722;DHT22;5412;59.450;18.124;2023-02-11T01:10:25;4.00;99.90
10722;DHT22;5412;59.450;18.124;2023-02-11T01:12:51;4.00;99.90
10722;DHT22;5412;59.450;18.124;2023-02-11T01:15:17;4.10;99.90
10722;DHT22;5412;59.450;18.124;2023-02-11T01:17:43;4.10;99.90
10722;DHT22;5412;59.450;18.124;2023-02-11T01:20:15;4.10;99.90
10722;DHT22;5412;59.450;18.124;2023-02-11T01:22:41;4.10;99.90
10722;DHT22;5412;59.450;18.124;2023-02-11T01:25:07;4.20;99.90
10722;DHT22;5412;59.450;18.124;2023-02-11T01:27:33;4.20;99.90
10722;DHT22;5412;59.450;18.124;2023-02-11T01:30:00;4.10;99.90
10722;DHT22;5412;59.450;18.124;2023-02-11T01:32:26;4.10;99.90
10722;DHT22;5412;59.450;18.124;2023-02-11T01:34:51;4.10;99.90
10722;DHT22;5412;59.450;18.124;2023-02-11T01:37:17;4.20;99.90
10722;DHT22;5412;59.450;18.124;2023-02-11T01:39:43;4.20;99.90
10722;DHT22;5412;59.450;18.124;2023-02-11T01:42:15;4.40;99.90
10722;DHT22;5412;59.450;18.124;2023-02-11T01:44:41;4.20;99.90
10722;DHT22;5412;59.450;18.124;2023-02-11T01:47:07;4.30;99.90
10722;DHT22;5412;59.450;18.124;2023-02-11T01:49:36;4.30;99.90
10722;DHT22;5412;59.450;18.124;2023-02-11T01:52:06;4.30;99.90
10722;DHT22;5412;59.450;18.124;2023-02-11T01:54:37;4.30;99.90
10722;DHT22;5412;59.450;18.124;2023-02-11T01:57:26;4.30;99.90
10722;DHT22;5412;59.450;18.124;2023-02-11T02:02:35;4.40;99.90
10722;DHT22;5412;59.450;18.124;2023-02-11T02:05:27;4.30;99.90
10722;DHT22;5412;59.450;18.124;2023-02-11T02:08:22;4.40;99.90
10722;DHT22;5412;59.450;18.124;2023-02-11T02:10:51;4.40;99.90
10722;DHT22;5412;59.450;18.124;2023-02-11T02:13:23;4.40;99.90
10722;DHT22;5412;59.450;18.124;2023-02-11T02:15:52;4.40;99.90
10722;DHT22;5412;59.450;18.124;2023-02-11T02:34:29;4.50;99.90
10722;DHT22;5412;59.450;18.124;2023-02-11T02:37:16;4.50;99.90
10722;DHT22;5412;59.450;18.124;2023-02-11T02:39:44;4.30;99.90
10722;DHT22;5412;59.450;18.124;2023-02-11T02:42:12;4.30;99.90
10722;DHT22;5412;59.450;18.124;2023-02-11T02:44:39;4.30;99.90
10722;DHT22;5412;59.450;18.124;2023-02-11T02:47:05;4.30;99.90
10722;DHT22;5412;59.450;18.124;2023-02-11T02:49:30;4.30;99.90
10722;DHT22;5412;59.450;18.124;2023-02-11T02:52:14;4.10;99.90
10722;DHT22;5412;59.450;18.124;2023-02-11T03:03:19;4.40;99.90
10722;DHT22;5412;59.450;18.124;2023-02-11T03:06:12;3.70;99.90
10722;DHT22;5412;59.450;18.124;2023-02-11T03:08:46;3.70;99.90
10722;DHT22;5412;59.450;18.124;2023-02-11T03:11:16;3.80;99.90
10722;DHT22;5412;59.450;18.124;2023-02-11T03:13:43;3.80;99.90
10722;DHT22;5412;59.450;18.124;2023-02-11T03:16:16;3.80;99.90
10722;DHT22;5412;59.450;18.124;2023-02-11T03:18:49;3.80;99.90
10722;DHT22;5412;59.450;18.124;2023-02-11T03:21:15;3.80;99.90
10722;DHT22;5412;59.450;18.124;2023-02-11T03:23:50;3.80;99.90
10722;DHT22;5412;59.450;18.124;2023-02-11T03:29:03;3.50;99.90
10722;DHT22;5412;59.450;18.124;2023-02-11T03:34:20;3.50;99.90
10722;DHT22;5412;59.450;18.124;2023-02-11T03:36:51;3.60;99.90
10722;DHT22;5412;59.450;18.124;2023-02-11T03:39:23;3.50;99.90
10722;DHT22;5412;59.450;18.124;2023-02-11T03:41:50;3.50;99.90
10722;DHT22;5412;59.450;18.124;2023-02-11T03:44:18;3.90;99.90
10722;DHT22;5412;59.450;18.124;2023-02-11T03:46:48;3.40;99.90
10722;DHT22;5412;59.450;18.124;2023-02-11T03:49:17;3.40;99.90
10722;DHT22;5412;59.450;18.124;2023-02-11T03:51:46;3.30;99.90
10722;DHT22;5412;59.450;18.124;2023-02-11T03:54:18;3.30;99.90
10722;DHT22;5412;59.450;18.124;2023-02-11T03:56:53;3.30;99.90
10722;DHT22;5412;59.450;18.124;2023-02-11T03:59:19;3.20;99.90
10722;DHT22;5412;59.450;18.124;2023-02-11T04:01:45;3.20;99.90
10722;DHT22;5412;59.450;18.124;2023-02-11T04:04:11;3.20;99.90
10722;DHT22;5412;59.450;18.124;2023-02-11T04:06:37;3.30;99.90
10722;DHT22;5412;59.450;18.124;2023-02-11T04:09:03;3.30;99.90
10722;DHT22;5412;59.450;18.124;2023-02-11T04:11:29;3.10;99.90
10722;DHT22;5412;59.450;18.124;2023-02-11T04:13:55;3.10;99.90
10722;DHT22;5412;59.450;18.124;2023-02-11T04:16:20;3.10;99.90
10722;DHT22;5412;59.450;18.124;2023-02-11T04:18:46;3.00;99.90
10722;DHT22;5412;59.450;18.124;2023-02-11T04:21:12;2.90;99.90
10722;DHT22;5412;59.450;18.124;2023-02-11T04:23:38;2.90;99.90
10722;DHT22;5412;59.450;18.124;2023-02-11T04:26:04;2.70;99.90
10722;DHT22;5412;59.450;18.124;2023-02-11T04:28:30;2.80;99.90
10722;DHT22;5412;59.450;18.124;2023-02-11T04:30:56;2.70;99.90
10722;DHT22;5412;59.450;18.124;2023-02-11T04:33:22;2.50;99.90
10722;DHT22;5412;59.450;18.124;2023-02-11T04:35:48;2.60;99.90
10722;DHT22;5412;59.450;18.124;2023-02-11T04:38:14;2.50;99.90
10722;DHT22;5412;59.450;18.124;2023-02-11T04:40:40;2.50;99.90
10722;DHT22;5412;59.450;18.124;2023-02-11T04:43:06;2.50;99.90
10722;DHT22;5412;59.450;18.124;2023-02-11T04:45:32;2.40;99.90
10722;DHT22;5412;59.450;18.124;2023-02-11T04:47:57;2.40;99.90
10722;DHT22;5412;59.450;18.124;2023-02-11T04:50:23;2.40;99.90
10722;DHT22;5412;59.450;18.124;2023-02-11T04:52:49;2.30;99.90
10722;DHT22;5412;59.450;18.124;2023-02-11T04:55:16;2.20;99.90
10722;DHT22;5412;59.450;18.124;2023-02-11T04:57:41;2.10;99.90
10722;DHT22;5412;59.450;18.124;2023-02-11T05:00:08;2.10;99.90
10722;DHT22;5412;59.450;18.124;2023-02-11T05:02:34;2.00;99.90
10722;DHT22;5412;59.450;18.124;2023-02-11T05:05:00;2.10;99.90
10722;DHT22;5412;59.450;18.124;2023-02-11T05:07:26;2.00;99.90
10722;DHT22;5412;59.450;18.124;2023-02-11T05:09:52;2.00;99.90
10722;DHT22;5412;59.450;18.124;2023-02-11T05:12:18;2.00;99.90
10722;DHT22;5412;59.450;18.124;2023-02-11T05:14:43;1.90;99.90
10722;DHT22;5412;59.450;18.124;2023-02-11T05:17:09;1.70;99.90
10722;DHT22;5412;59.450;18.124;2023-02-11T05:19:35;1.80;99.90
10722;DHT22;5412;59.450;18.124;2023-02-11T05:22:00;1.90;99.90
10722;DHT22;5412;59.450;18.124;2023-02-11T05:24:26;1.80;99.90
10722;DHT22;5412;59.450;18.124;2023-02-11T05:26:52;1.70;99.90
10722;DHT22;5412;59.450;18.124;2023-02-11T05:29:18;1.70;99.90
10722;DHT22;5412;59.450;18.124;2023-02-11T05:31:44;1.70;99.90
10722;DHT22;5412;59.450;18.124;2023-02-11T05:34:10;1.60;99.90
10722;DHT22;5412;59.450;18.124;2023-02-11T05:36:36;1.60;99.90
10722;DHT22;5412;59.450;18.124;2023-02-11T05:39:02;1.60;99.90
10722;DHT22;5412;59.450;18.124;2023-02-11T05:41:28;1.60;99.90
10722;DHT22;5412;59.450;18.124;2023-02-11T05:43:53;1.70;99.90
10722;DHT22;5412;59.450;18.124;2023-02-11T05:46:19;1.70;99.90
10722;DHT22;5412;59.450;18.124;2023-02-11T05:48:45;1.70;99.90
10722;DHT22;5412;59.450;18.124;2023-02-11T05:51:11;1.60;99.90
10722;DHT22;5412;59.450;18.124;2023-02-11T05:53:36;1.60;99.90
10722;DHT22;5412;59.450;18.124;2023-02-11T05:56:02;1.50;99.90
10722;DHT22;5412;59.450;18.124;2023-02-11T05:58:28;1.50;99.90
10722;DHT22;5412;59.450;18.124;2023-02-11T06:00:54;1.50;99.90
10722;DHT22;5412;59.450;18.124;2023-02-11T06:03:20;1.50;99.90
10722;DHT22;5412;59.450;18.124;2023-02-11T06:05:46;1.50;99.90
10722;DHT22;5412;59.450;18.124;2023-02-11T06:08:12;1.50;99.90
10722;DHT22;5412;59.450;18.124;2023-02-11T06:10:37;1.40;99.90
10722;DHT22;5412;59.450;18.124;2023-02-11T06:13:03;1.50;99.90
10722;DHT22;5412;59.450;18.124;2023-02-11T06:15:29;1.30;99.90
10722;DHT22;5412;59.450;18.124;2023-02-11T06:17:55;1.20;99.90
10722;DHT22;5412;59.450;18.124;2023-02-11T06:20:21;1.30;99.90
10722;DHT22;5412;59.450;18.124;2023-02-11T06:22:46;1.10;99.90
10722;DHT22;5412;59.450;18.124;2023-02-11T06:25:13;1.20;99.90
10722;DHT22;5412;59.450;18.124;2023-02-11T06:27:39;1.10;99.90
10722;DHT22;5412;59.450;18.124;2023-02-11T06:30:06;1.10;99.90
10722;DHT22;5412;59.450;18.124;2023-02-11T06:32:32;1.10;99.90
10722;DHT22;5412;59.450;18.124;2023-02-11T06:34:58;1.20;99.90
10722;DHT22;5412;59.450;18.124;2023-02-11T06:37:23;1.00;99.90
10722;DHT22;5412;59.450;18.124;2023-02-11T06:39:49;1.20;99.90
10722;DHT22;5412;59.450;18.124;2023-02-11T06:42:15;1.20;99.90
10722;DHT22;5412;59.450;18.124;2023-02-11T06:44:41;1.10;99.90
10722;DHT22;5412;59.450;18.124;2023-02-11T06:47:06;1.20;99.90
10722;DHT22;5412;59.450;18.124;2023-02-11T06:49:32;1.30;99.90
10722;DHT22;5412;59.450;18.124;2023-02-11T06:51:58;1.10;99.90
10722;DHT22;5412;59.450;18.124;2023-02-11T06:54:24;1.20;99.90
10722;DHT22;5412;59.450;18.124;2023-02-11T06:56:50;1.20;99.90
10722;DHT22;5412;59.450;18.124;2023-02-11T06:59:17;1.30;99.90
10722;DHT22;5412;59.450;18.124;2023-02-11T07:01:44;1.30;99.90
10722;DHT22;5412;59.450;18.124;2023-02-11T07:04:10;1.20;99.90
10722;DHT22;5412;59.450;18.124;2023-02-11T07:06:36;1.10;99.90
10722;DHT22;5412;59.450;18.124;2023-02-11T07:09:03;1.10;99.90
10722;DHT22;5412;59.450;18.124;2023-02-11T07:11:30;1.20;99.90
10722;DHT22;5412;59.450;18.124;2023-02-11T07:14:00;1.20;99.90
10722;DHT22;5412;59.450;18.124;2023-02-11T07:16:26;1.10;99.90
10722;DHT22;5412;59.450;18.124;2023-02-11T07:18:52;0.90;99.90
10722;DHT22;5412;59.450;18.124;2023-02-11T07:21:20;1.00;99.90
10722;DHT22;5412;59.450;18.124;2023-02-11T07:23:47;1.10;99.90
10722;DHT22;5412;59.450;18.124;2023-02-11T07:26:16;1.20;99.90
10722;DHT22;5412;59.450;18.124;2023-02-11T07:28:43;1.20;99.90
10722;DHT22;5412;59.450;18.124;2023-02-11T07:31:17;1.10;99.90
10722;DHT22;5412;59.450;18.124;2023-02-11T07:33:44;1.20;99.90
10722;DHT22;5412;59.450;18.124;2023-02-11T07:36:14;1.10;99.90
10722;DHT22;5412;59.450;18.124;2023-02-11T07:38:40;1.20;99.90
10722;DHT22;5412;59.450;18.124;2023-02-11T07:41:08;1.40;99.90
10722;DHT22;5412;59.450;18.124;2023-02-11T07:43:35;1.30;99.90
10722;DHT22;5412;59.450;18.124;2023-02-11T07:46:09;1.40;99.90
10722;DHT22;5412;59.450;18.124;2023-02-11T07:48:35;1.30;99.90
10722;DHT22;5412;59.450;18.124;2023-02-11T07:51:09;1.10;99.90
10722;DHT22;5412;59.450;18.124;2023-02-11T07:53:35;1.20;99.90
10722;DHT22;5412;59.450;18.124;2023-02-11T07:56:02;1.20;99.90
10722;DHT22;5412;59.450;18.124;2023-02-11T07:58:28;1.00;99.90
10722;DHT22;5412;59.450;18.124;2023-02-11T08:00:54;1.20;99.90
10722;DHT22;5412;59.450;18.124;2023-02-11T08:03:24;1.30;99.90
10722;DHT22;5412;59.450;18.124;2023-02-11T08:05:50;1.00;99.90
10722;DHT22;5412;59.450;18.124;2023-02-11T08:08:16;0.90;99.90
10722;DHT22;5412;59.450;18.124;2023-02-11T08:10:41;1.20;99.90
10722;DHT22;5412;59.450;18.124;2023-02-11T08:13:07;1.00;99.90
10722;DHT22;5412;59.450;18.124;2023-02-11T08:15:33;1.10;99.90
10722;DHT22;5412;59.450;18.124;2023-02-11T08:17:59;1.30;99.90
10722;DHT22;5412;59.450;18.124;2023-02-11T08:20:24;1.20;99.90
10722;DHT22;5412;59.450;18.124;2023-02-11T08:22:50;1.20;99.90
10722;DHT22;5412;59.450;18.124;2023-02-11T08:25:16;1.20;99.90
10722;DHT22;5412;59.450;18.124;2023-02-11T08:27:41;1.20;99.90
10722;DHT22;5412;59.450;18.124;2023-02-11T08:30:08;1.10;99.90
10722;DHT22;5412;59.450;18.124;2023-02-11T08:32:34;1.10;99.90
10722;DHT22;5412;59.450;18.124;2023-02-11T08:34:59;1.20;99.90
10722;DHT22;5412;59.450;18.124;2023-02-11T08:37:25;1.10;99.90
10722;DHT22;5412;59.450;18.124;2023-02-11T08:39:51;0.90;99.90
10722;DHT22;5412;59.450;18.124;2023-02-11T08:42:17;0.90;99.90
10722;DHT22;5412;59.450;18.124;2023-02-11T08:44:42;0.70;99.90
10722;DHT22;5412;59.450;18.124;2023-02-11T08:47:08;0.90;99.90
10722;DHT22;5412;59.450;18.124;2023-02-11T08:49:34;1.10;99.90
10722;DHT22;5412;59.450;18.124;2023-02-11T08:52:00;1.00;99.90
10722;DHT22;5412;59.450;18.124;2023-02-11T08:54:29;1.10;99.90
10722;DHT22;5412;59.450;18.124;2023-02-11T08:56:56;0.90;99.90
10722;DHT22;5412;59.450;18.124;2023-02-11T08:59:22;1.00;99.90
10722;DHT22;5412;59.450;18.124;2023-02-11T09:01:48;1.00;99.90
10722;DHT22;5412;59.450;18.124;2023-02-11T09:04:14;0.80;99.90
10722;DHT22;5412;59.450;18.124;2023-02-11T09:06:40;0.70;99.90
10722;DHT22;5412;59.450;18.124;2023-02-11T09:09:09;0.90;99.90
10722;DHT22;5412;59.450;18.124;2023-02-11T09:11:35;1.00;99.90
10722;DHT22;5412;59.450;18.124;2023-02-11T09:14:02;1.10;99.90
10722;DHT22;5412;59.450;18.124;2023-02-11T09:16:30;0.90;99.90
10722;DHT22;5412;59.450;18.124;2023-02-11T09:18:57;1.00;99.90
10722;DHT22;5412;59.450;18.124;2023-02-11T09:21:23;1.10;99.90
10722;DHT22;5412;59.450;18.124;2023-02-11T09:23:49;0.90;99.90
10722;DHT22;5412;59.450;18.124;2023-02-11T09:26:23;1.10;99.90
10722;DHT22;5412;59.450;18.124;2023-02-11T09:28:49;1.40;99.90
10722;DHT22;5412;59.450;18.124;2023-02-11T09:31:18;1.20;99.90
10722;DHT22;5412;59.450;18.124;2023-02-11T09:33:45;1.10;99.90
10722;DHT22;5412;59.450;18.124;2023-02-11T09:36:20;1.30;99.90
10722;DHT22;5412;59.450;18.124;2023-02-11T09:38:46;1.30;99.90
10722;DHT22;5412;59.450;18.124;2023-02-11T09:44:06;0.60;99.90
10722;DHT22;5412;59.450;18.124;2023-02-11T09:46:39;0.80;99.90
10722;DHT22;5412;59.450;18.124;2023-02-11T09:49:06;0.80;99.90
10722;DHT22;5412;59.450;18.124;2023-02-11T09:51:43;0.80;99.90
10722;DHT22;5412;59.450;18.124;2023-02-11T09:54:23;1.40;99.90
10722;DHT22;5412;59.450;18.124;2023-02-11T09:56:51;1.10;99.90
10722;DHT22;5412;59.450;18.124;2023-02-11T09:59:17;1.10;99.90
10722;DHT22;5412;59.450;18.124;2023-02-11T10:01:47;1.00;99.90
10722;DHT22;5412;59.450;18.124;2023-02-11T10:07:16;0.80;99.90
10722;DHT22;5412;59.450;18.124;2023-02-11T10:15:41;0.90;99.90
10722;DHT22;5412;59.450;18.124;2023-02-11T10:18:30;1.00;99.90
10722;DHT22;5412;59.450;18.124;2023-02-11T10:21:15;1.00;99.90
10722;DHT22;5412;59.450;18.124;2023-02-11T10:23:47;1.00;99.90
10722;DHT22;5412;59.450;18.124;2023-02-11T10:26:17;1.10;99.90
10722;DHT22;5412;59.450;18.124;2023-02-11T10:28:49;1.00;99.90
10722;DHT22;5412;59.450;18.124;2023-02-11T10:31:18;1.00;99.90
10722;DHT22;5412;59.450;18.124;2023-02-11T10:33:53;0.80;99.90
10722;DHT22;5412;59.450;18.124;2023-02-11T10:36:26;0.70;99.90
10722;DHT22;5412;59.450;18.124;2023-02-11T10:38:52;0.80;99.90
10722;DHT22;5412;59.450;18.124;2023-02-11T10:41:31;1.10;99.90
10722;DHT22;5412;59.450;18.124;2023-02-11T10:43:59;1.00;99.90
10722;DHT22;5412;59.450;18.124;2023-02-11T10:46:30;1.10;99.90
10722;DHT22;5412;59.450;18.124;2023-02-11T10:48:56;0.80;99.90
10722;DHT22;5412;59.450;18.124;2023-02-11T10:51:30;1.10;99.90
10722;DHT22;5412;59.450;18.124;2023-02-11T10:56:36;1.20;99.90
10722;DHT22;5412;59.450;18.124;2023-02-11T10:59:13;1.30;99.90
10722;DHT22;5412;59.450;18.124;2023-02-11T11:01:44;1.40;99.90
10722;DHT22;5412;59.450;18.124;2023-02-11T11:06:56;1.10;99.90
10722;DHT22;5412;59.450;18.124;2023-02-11T11:09:28;1.20;99.90
10722;DHT22;5412;59.450;18.124;2023-02-11T11:11:56;1.20;99.90
10722;DHT22;5412;59.450;18.124;2023-02-11T11:14:24;1.10;99.90
10722;DHT22;5412;59.450;18.124;2023-02-11T11:16:54;1.20;99.90
10722;DHT22;5412;59.450;18.124;2023-02-11T11:19:22;1.30;99.90
10722;DHT22;5412;59.450;18.124;2023-02-11T11:21:51;1.40;99.90
10722;DHT22;5412;59.450;18.124;2023-02-11T11:24:19;1.30;99.90
10722;DHT22;5412;59.450;18.124;2023-02-11T11:27:14;1.10;99.90
10722;DHT22;5412;59.450;18.124;2023-02-11T11:29:47;1.30;99.90
10722;DHT22;5412;59.450;18.124;2023-02-11T11:32:31;1.50;99.90
10722;DHT22;5412;59.450;18.124;2023-02-11T11:35:01;1.40;99.90
10722;DHT22;5412;59.450;18.124;2023-02-11T11:37:33;1.50;99.90
10722;DHT22;5412;59.450;18.124;2023-02-11T11:42:31;1.70;99.90
10722;DHT22;5412;59.450;18.124;2023-02-11T11:45:01;1.70;99.90
10722;DHT22;5412;59.450;18.124;2023-02-11T11:47:40;1.70;99.90
10722;DHT22;5412;59.450;18.124;2023-02-11T11:53:09;1.70;99.90
10722;DHT22;5412;59.450;18.124;2023-02-11T11:55:47;1.80;99.90
10722;DHT22;5412;59.450;18.124;2023-02-11T11:58:20;1.90;99.90
10722;DHT22;5412;59.450;18.124;2023-02-11T12:12:23;2.10;99.90
10722;DHT22;5412;59.450;18.124;2023-02-11T12:17:50;2.10;99.90
10722;DHT22;5412;59.450;18.124;2023-02-11T12:23:20;2.00;99.90
10722;DHT22;5412;59.450;18.124;2023-02-11T12:25:59;2.00;99.90
10722;DHT22;5412;59.450;18.124;2023-02-11T12:37:18;1.50;99.90
10722;DHT22;5412;59.450;18.124;2023-02-11T12:40:13;1.60;99.90
10722;DHT22;5412;59.450;18.124;2023-02-11T12:42:50;1.40;99.90
10722;DHT22;5412;59.450;18.124;2023-02-11T12:49:05;1.30;99.90
10722;DHT22;5412;59.450;18.124;2023-02-11T13:02:20;1.70;99.90
10722;DHT22;5412;59.450;18.124;2023-02-11T13:04:53;1.60;99.90
10722;DHT22;5412;59.450;18.124;2023-02-11T13:07:32;1.70;99.90
10722;DHT22;5412;59.450;18.124;2023-02-11T13:10:04;1.60;99.90
10722;DHT22;5412;59.450;18.124;2023-02-11T13:12:35;1.70;99.90
10722;DHT22;5412;59.450;18.124;2023-02-11T13:15:20;1.80;99.90
10722;DHT22;5412;59.450;18.124;2023-02-11T13:20:52;1.40;99.90
10722;DHT22;5412;59.450;18.124;2023-02-11T13:26:20;1.50;99.90
10722;DHT22;5412;59.450;18.124;2023-02-11T13:31:35;1.60;99.90
10722;DHT22;5412;59.450;18.124;2023-02-11T13:34:01;1.60;99.90
10722;DHT22;5412;59.450;18.124;2023-02-11T13:36:28;1.40;99.90
10722;DHT22;5412;59.450;18.124;2023-02-11T13:39:04;1.60;99.90
10722;DHT22;5412;59.450;18.124;2023-02-11T13:41:37;1.60;99.90
10722;DHT22;5412;59.450;18.124;2023-02-11T13:44:17;1.80;99.90
10722;DHT22;5412;59.450;18.124;2023-02-11T13:47:04;1.80;99.90
10722;DHT22;5412;59.450;18.124;2023-02-11T13:52:02;2.10;99.90
10722;DHT22;5412;59.450;18.124;2023-02-11T13:54:32;2.20;99.90
10722;DHT22;5412;59.450;18.124;2023-02-11T14:00:03;3.90;99.90
10722;DHT22;5412;59.450;18.124;2023-02-11T14:02:33;4.70;99.90
10722;DHT22;5412;59.450;18.124;2023-02-11T14:05:32;5.00;99.90
10722;DHT22;5412;59.450;18.124;2023-02-11T14:08:21;4.30;99.90
10722;DHT22;5412;59.450;18.124;2023-02-11T14:17:17;5.90;99.90
10722;DHT22;5412;59.450;18.124;2023-02-11T14:19:46;5.60;99.90
10722;DHT22;5412;59.450;18.124;2023-02-11T14:22:25;4.80;99.90
10722;DHT22;5412;59.450;18.124;2023-02-11T14:25:04;4.00;99.90
10722;DHT22;5412;59.450;18.124;2023-02-11T14:27:41;3.70;99.90
10722;DHT22;5412;59.450;18.124;2023-02-11T14:33:06;2.90;99.90
10722;DHT22;5412;59.450;18.124;2023-02-11T14:41:24;2.20;99.90
10722;DHT22;5412;59.450;18.124;2023-02-11T14:43:56;2.10;99.90
10722;DHT22;5412;59.450;18.124;2023-02-11T14:46:23;2.10;99.90
10722;DHT22;5412;59.450;18.124;2023-02-11T14:48:53;1.90;99.90
10722;DHT22;5412;59.450;18.124;2023-02-11T14:51:25;1.80;99.90
10722;DHT22;5412;59.450;18.124;2023-02-11T14:54:37;1.80;99.90
10722;DHT22;5412;59.450;18.124;2023-02-11T14:57:16;1.80;99.90
10722;DHT22;5412;59.450;18.124;2023-02-11T14:59:58;1.70;99.90
10722;DHT22;5412;59.450;18.124;2023-02-11T15:02:37;1.70;99.90
10722;DHT22;5412;59.450;18.124;2023-02-11T15:05:32;1.60;99.90
10722;DHT22;5412;59.450;18.124;2023-02-11T15:08:01;1.50;99.90
10722;DHT22;5412;59.450;18.124;2023-02-11T15:10:46;1.40;99.90
10722;DHT22;5412;59.450;18.124;2023-02-11T15:13:18;1.40;99.90
10722;DHT22;5412;59.450;18.124;2023-02-11T15:15:45;1.40;99.90
10722;DHT22;5412;59.450;18.124;2023-02-11T15:18:20;1.50;99.90
10722;DHT22;5412;59.450;18.124;2023-02-11T15:20:48;1.40;99.90
10722;DHT22;5412;59.450;18.124;2023-02-11T15:23:23;1.50;99.90
10722;DHT22;5412;59.450;18.124;2023-02-11T15:25:49;1.50;99.90
10722;DHT22;5412;59.450;18.124;2023-02-11T15:28:29;1.50;99.90
10722;DHT22;5412;59.450;18.124;2023-02-11T15:31:03;1.40;99.90
10722;DHT22;5412;59.450;18.124;2023-02-11T15:33:31;1.40;99.90
10722;DHT22;5412;59.450;18.124;2023-02-11T15:35:59;1.50;99.90
10722;DHT22;5412;59.450;18.124;2023-02-11T15:38:26;1.40;99.90
10722;DHT22;5412;59.450;18.124;2023-02-11T15:40:55;1.30;99.90
10722;DHT22;5412;59.450;18.124;2023-02-11T15:43:23;1.30;99.90
10722;DHT22;5412;59.450;18.124;2023-02-11T15:48:24;1.30;99.90
10722;DHT22;5412;59.450;18.124;2023-02-11T15:50:57;1.20;99.90
10722;DHT22;5412;59.450;18.124;2023-02-11T15:53:34;1.30;99.90
10722;DHT22;5412;59.450;18.124;2023-02-11T15:56:08;1.30;99.90
10722;DHT22;5412;59.450;18.124;2023-02-11T15:58:36;1.20;99.90
10722;DHT22;5412;59.450;18.124;2023-02-11T16:01:02;1.20;99.90
10722;DHT22;5412;59.450;18.124;2023-02-11T16:03:28;1.20;99.90
10722;DHT22;5412;59.450;18.124;2023-02-11T16:06:24;1.20;99.90
10722;DHT22;5412;59.450;18.124;2023-02-11T16:08:59;1.10;99.90
10722;DHT22;5412;59.450;18.124;2023-02-11T16:11:52;1.10;99.90
10722;DHT22;5412;59.450;18.124;2023-02-11T16:14:22;1.10;99.90
10722;DHT22;5412;59.450;18.124;2023-02-11T16:16:52;1.00;99.90
10722;DHT22;5412;59.450;18.124;2023-02-11T16:19:19;1.00;99.90
10722;DHT22;5412;59.450;18.124;2023-02-11T16:21:46;1.00;99.90
10722;DHT22;5412;59.450;18.124;2023-02-11T16:24:33;1.00;99.90
10722;DHT22;5412;59.450;18.124;2023-02-11T16:27:04;0.90;99.90
10722;DHT22;5412;59.450;18.124;2023-02-11T16:29:33;0.90;99.90
10722;DHT22;5412;59.450;18.124;2023-02-11T16:32:30;1.00;99.90
10722;DHT22;5412;59.450;18.124;2023-02-11T16:34:58;0.90;99.90
10722;DHT22;5412;59.450;18.124;2023-02-11T16:37:25;0.90;99.90
10722;DHT22;5412;59.450;18.124;2023-02-11T16:39:55;0.90;99.90
10722;DHT22;5412;59.450;18.124;2023-02-11T16:42:20;1.00;99.90
10722;DHT22;5412;59.450;18.124;2023-02-11T16:44:46;1.00;99.90
10722;DHT22;5412;59.450;18.124;2023-02-11T16:47:26;1.00;99.90
10722;DHT22;5412;59.450;18.124;2023-02-11T16:49:53;1.00;99.90
10722;DHT22;5412;59.450;18.124;2023-02-11T16:52:20;1.00;99.90
10722;DHT22;5412;59.450;18.124;2023-02-11T16:54:46;0.90;99.90
10722;DHT22;5412;59.450;18.124;2023-02-11T16:57:23;0.80;99.90
10722;DHT22;5412;59.450;18.124;2023-02-11T16:59:49;0.90;99.90
10722;DHT22;5412;59.450;18.124;2023-02-11T17:02:25;0.80;99.90
10722;DHT22;5412;59.450;18.124;2023-02-11T17:04:52;0.80;99.90
10722;DHT22;5412;59.450;18.124;2023-02-11T17:07:18;0.80;99.90
10722;DHT22;5412;59.450;18.124;2023-02-11T17:09:44;0.80;99.90
10722;DHT22;5412;59.450;18.124;2023-02-11T17:12:10;0.80;99.90
10722;DHT22;5412;59.450;18.124;2023-02-11T17:14:36;0.80;99.90
10722;DHT22;5412;59.450;18.124;2023-02-11T17:17:01;0.80;99.90
10722;DHT22;5412;59.450;18.124;2023-02-11T17:19:27;0.70;99.90
10722;DHT22;5412;59.450;18.124;2023-02-11T17:21:53;0.80;99.90
10722;DHT22;5412;59.450;18.124;2023-02-11T17:24:20;0.80;99.90
10722;DHT22;5412;59.450;18.124;2023-02-11T17:26:47;0.70;99.90
10722;DHT22;5412;59.450;18.124;2023-02-11T17:29:17;0.80;99.90
10722;DHT22;5412;59.450;18.124;2023-02-11T17:31:43;0.70;99.90
10722;DHT22;5412;59.450;18.124;2023-02-11T17:34:09;0.70;99.90
10722;DHT22;5412;59.450;18.124;2023-02-11T17:36:35;0.80;99.90
10722;DHT22;5412;59.450;18.124;2023-02-11T17:39:02;0.70;99.90
10722;DHT22;5412;59.450;18.124;2023-02-11T17:41:28;0.70;99.90
10722;DHT22;5412;59.450;18.124;2023-02-11T17:43:58;0.80;99.90
10722;DHT22;5412;59.450;18.124;2023-02-11T17:46:25;0.70;99.90
10722;DHT22;5412;59.450;18.124;2023-02-11T17:48:53;0.70;99.90
10722;DHT22;5412;59.450;18.124;2023-02-11T17:51:22;0.70;99.90
10722;DHT22;5412;59.450;18.124;2023-02-11T17:53:49;0.60;99.90
10722;DHT22;5412;59.450;18.124;2023-02-11T17:56:14;0.70;99.90
10722;DHT22;5412;59.450;18.124;2023-02-11T17:58:40;0.80;99.90
10722;DHT22;5412;59.450;18.124;2023-02-11T18:01:06;0.80;99.90
10722;DHT22;5412;59.450;18.124;2023-02-11T18:03:32;0.80;99.90
10722;DHT22;5412;59.450;18.124;2023-02-11T18:06:02;0.70;99.90
10722;DHT22;5412;59.450;18.124;2023-02-11T18:08:28;0.80;99.90